sensor_id;sensor_type;location;lat;lon;timestamp;P1;durP1;ratioP1;P2;durP2;ratioP2
11090;SDS011;5599;52.210;21.046;2023-04-24T00:01:44;14.60;;;8.37;;
11090;SDS011;5599;52.210;21.046;2023-04-24T00:04:15;7.87;;;6.93;;
11090;SDS011;5599;52.210;21.046;2023-04-24T00:06:45;11.50;;;7.90;;
11090;SDS011;5599;52.210;21.046;2023-04-24T00:09:16;11.20;;;7.80;;
11090;SDS011;5599;52.210;21.046;2023-04-24T00:11:45;16.47;;;9.00;;
11090;SDS011;5599;52.210;21.046;2023-04-24T00:14:14;12.00;;;7.60;;
11090;SDS011;5599;52.210;21.046;2023-04-24T00:16:44;9.87;;;7.43;;
11090;SDS011;5599;52.210;21.046;2023-04-24T00:19:14;10.53;;;7.87;;
11090;SDS011;5599;52.210;21.046;2023-04-24T00:21:43;8.83;;;7.93;;
11090;SDS011;5599;52.210;21.046;2023-04-24T00:24:13;9.23;;;6.73;;
11090;SDS011;5599;52.210;21.046;2023-04-24T00:26:42;10.53;;;7.07;;
11090;SDS011;5599;52.210;21.046;2023-04-24T00:29:11;9.70;;;8.37;;
11090;SDS011;5599;52.210;21.046;2023-04-24T00:31:40;10.10;;;7.30;;
11090;SDS011;5599;52.210;21.046;2023-04-24T00:34:10;8.90;;;7.30;;
11090;SDS011;5599;52.210;21.046;2023-04-24T00:36:41;8.90;;;7.17;;
11090;SDS011;5599;52.210;21.046;2023-04-24T00:39:10;9.23;;;7.40;;
11090;SDS011;5599;52.210;21.046;2023-04-24T00:41:39;9.00;;;8.00;;
11090;SDS011;5599;52.210;21.046;2023-04-24T00:44:08;13.40;;;7.57;;
11090;SDS011;5599;52.210;21.046;2023-04-24T00:46:38;14.03;;;8.80;;
11090;SDS011;5599;52.210;21.046;2023-04-24T00:49:07;10.67;;;7.77;;
11090;SDS011;5599;52.210;21.046;2023-04-24T00:51:36;12.70;;;8.03;;
11090;SDS011;5599;52.210;21.046;2023-04-24T00:54:09;12.23;;;7.73;;
11090;SDS011;5599;52.210;21.046;2023-04-24T00:56:38;10.97;;;7.93;;
11090;SDS011;5599;52.210;21.046;2023-04-24T00:59:09;11.60;;;7.60;;
11090;SDS011;5599;52.210;21.046;2023-04-24T01:01:39;14.60;;;7.97;;
11090;SDS011;5599;52.210;21.046;2023-04-24T01:04:09;10.03;;;7.53;;
11090;SDS011;5599;52.210;21.046;2023-04-24T01:06:40;12.90;;;8.03;;
11090;SDS011;5599;52.210;21.046;2023-04-24T01:09:13;12.47;;;8.33;;
11090;SDS011;5599;52.210;21.046;2023-04-24T01:11:43;9.03;;;8.13;;
11090;SDS011;5599;52.210;21.046;2023-04-24T01:14:12;13.13;;;7.77;;
11090;SDS011;5599;52.210;21.046;2023-04-24T01:16:42;12.27;;;7.97;;
11090;SDS011;5599;52.210;21.046;2023-04-24T01:19:11;9.87;;;7.70;;
11090;SDS011;5599;52.210;21.046;2023-04-24T01:21:42;8.70;;;7.73;;
11090;SDS011;5599;52.210;21.046;2023-04-24T01:24:14;11.27;;;8.43;;
11090;SDS011;5599;52.210;21.046;2023-04-24T01:26:44;9.37;;;8.40;;
11090;SDS011;5599;52.210;21.046;2023-04-24T01:29:13;15.40;;;9.43;;
11090;SDS011;5599;52.210;21.046;2023-04-24T01:31:42;10.43;;;8.27;;
11090;SDS011;5599;52.210;21.046;2023-04-24T01:34:12;13.87;;;8.60;;
11090;SDS011;5599;52.210;21.046;2023-04-24T01:36:41;11.43;;;8.80;;
11090;SDS011;5599;52.210;21.046;2023-04-24T01:39:14;14.97;;;9.40;;
11090;SDS011;5599;52.210;21.046;2023-04-24T01:41:44;13.07;;;8.90;;
11090;SDS011;5599;52.210;21.046;2023-04-24T01:44:13;14.47;;;9.20;;
11090;SDS011;5599;52.210;21.046;2023-04-24T01:46:43;10.67;;;9.10;;
11090;SDS011;5599;52.210;21.046;2023-04-24T01:49:12;10.43;;;7.97;;
11090;SDS011;5599;52.210;21.046;2023-04-24T01:51:41;11.10;;;8.27;;
11090;SDS011;5599;52.210;21.046;2023-04-24T01:54:10;12.83;;;8.53;;
11090;SDS011;5599;52.210;21.046;2023-04-24T01:56:42;9.43;;;8.17;;
11090;SDS011;5599;52.210;21.046;2023-04-24T01:59:12;8.73;;;7.50;;
11090;SDS011;5599;52.210;21.046;2023-04-24T02:01:41;11.47;;;8.53;;
11090;SDS011;5599;52.210;21.046;2023-04-24T02:04:11;11.60;;;8.50;;
11090;SDS011;5599;52.210;21.046;2023-04-24T02:06:41;14.00;;;8.37;;
11090;SDS011;5599;52.210;21.046;2023-04-24T02:09:11;12.57;;;8.67;;
11090;SDS011;5599;52.210;21.046;2023-04-24T02:11:40;10.60;;;8.67;;
11090;SDS011;5599;52.210;21.046;2023-04-24T02:14:10;12.47;;;9.27;;
11090;SDS011;5599;52.210;21.046;2023-04-24T02:16:39;9.33;;;7.10;;
11090;SDS011;5599;52.210;21.046;2023-04-24T02:19:09;9.77;;;8.13;;
11090;SDS011;5599;52.210;21.046;2023-04-24T02:21:38;11.00;;;8.43;;
11090;SDS011;5599;52.210;21.046;2023-04-24T02:24:08;12.13;;;9.40;;
11090;SDS011;5599;52.210;21.046;2023-04-24T02:26:37;9.87;;;8.70;;
11090;SDS011;5599;52.210;21.046;2023-04-24T02:29:08;10.63;;;8.57;;
11090;SDS011;5599;52.210;21.046;2023-04-24T02:31:37;13.60;;;9.50;;
11090;SDS011;5599;52.210;21.046;2023-04-24T02:34:06;13.17;;;8.90;;
11090;SDS011;5599;52.210;21.046;2023-04-24T02:36:36;11.30;;;9.30;;
11090;SDS011;5599;52.210;21.046;2023-04-24T02:39:07;11.47;;;9.50;;
11090;SDS011;5599;52.210;21.046;2023-04-24T02:41:38;13.57;;;9.70;;
11090;SDS011;5599;52.210;21.046;2023-04-24T02:44:09;12.33;;;8.70;;
11090;SDS011;5599;52.210;21.046;2023-04-24T02:46:39;11.83;;;9.73;;
11090;SDS011;5599;52.210;21.046;2023-04-24T02:49:09;11.27;;;8.80;;
11090;SDS011;5599;52.210;21.046;2023-04-24T02:51:39;10.00;;;9.00;;
11090;SDS011;5599;52.210;21.046;2023-04-24T02:54:09;11.23;;;9.07;;
11090;SDS011;5599;52.210;21.046;2023-04-24T02:56:38;12.30;;;9.13;;
11090;SDS011;5599;52.210;21.046;2023-04-24T02:59:09;13.13;;;9.33;;
11090;SDS011;5599;52.210;21.046;2023-04-24T03:01:39;12.27;;;9.73;;
11090;SDS011;5599;52.210;21.046;2023-04-24T03:04:08;12.97;;;9.40;;
11090;SDS011;5599;52.210;21.046;2023-04-24T03:06:39;13.80;;;9.83;;
11090;SDS011;5599;52.210;21.046;2023-04-24T03:09:08;11.93;;;9.80;;
11090;SDS011;5599;52.210;21.046;2023-04-24T03:11:37;10.20;;;9.07;;
11090;SDS011;5599;52.210;21.046;2023-04-24T03:14:07;11.30;;;9.30;;
11090;SDS011;5599;52.210;21.046;2023-04-24T03:16:38;12.37;;;10.00;;
11090;SDS011;5599;52.210;21.046;2023-04-24T03:19:08;11.60;;;9.43;;
11090;SDS011;5599;52.210;21.046;2023-04-24T03:21:46;13.17;;;9.67;;
11090;SDS011;5599;52.210;21.046;2023-04-24T03:24:16;13.03;;;9.20;;
11090;SDS011;5599;52.210;21.046;2023-04-24T03:26:45;10.43;;;9.43;;
11090;SDS011;5599;52.210;21.046;2023-04-24T03:29:48;12.70;;;9.13;;
11090;SDS011;5599;52.210;21.046;2023-04-24T03:32:23;12.03;;;9.53;;
11090;SDS011;5599;52.210;21.046;2023-04-24T03:34:53;12.63;;;9.53;;
11090;SDS011;5599;52.210;21.046;2023-04-24T03:37:22;16.20;;;10.47;;
11090;SDS011;5599;52.210;21.046;2023-04-24T03:40:04;15.70;;;9.77;;
11090;SDS011;5599;52.210;21.046;2023-04-24T03:42:36;13.93;;;10.03;;
11090;SDS011;5599;52.210;21.046;2023-04-24T03:45:08;12.87;;;9.67;;
11090;SDS011;5599;52.210;21.046;2023-04-24T03:47:45;11.93;;;9.13;;
11090;SDS011;5599;52.210;21.046;2023-04-24T03:50:14;13.57;;;9.23;;
11090;SDS011;5599;52.210;21.046;2023-04-24T03:52:44;12.23;;;10.30;;
11090;SDS011;5599;52.210;21.046;2023-04-24T03:55:27;14.40;;;9.27;;
11090;SDS011;5599;52.210;21.046;2023-04-24T03:57:58;14.00;;;9.83;;
11090;SDS011;5599;52.210;21.046;2023-04-24T04:00:29;13.70;;;9.93;;
11090;SDS011;5599;52.210;21.046;2023-04-24T04:03:20;10.23;;;9.03;;
11090;SDS011;5599;52.210;21.046;2023-04-24T04:05:50;11.07;;;9.93;;
11090;SDS011;5599;52.210;21.046;2023-04-24T04:08:20;14.33;;;9.80;;
11090;SDS011;5599;52.210;21.046;2023-04-24T04:10:49;17.30;;;10.37;;
11090;SDS011;5599;52.210;21.046;2023-04-24T04:13:18;11.63;;;9.33;;
11090;SDS011;5599;52.210;21.046;2023-04-24T04:15:50;12.93;;;9.60;;
11090;SDS011;5599;52.210;21.046;2023-04-24T04:18:19;15.23;;;10.10;;
11090;SDS011;5599;52.210;21.046;2023-04-24T04:20:49;16.80;;;9.63;;
11090;SDS011;5599;52.210;21.046;2023-04-24T04:23:18;14.10;;;10.27;;
11090;SDS011;5599;52.210;21.046;2023-04-24T04:26:03;13.20;;;9.33;;
11090;SDS011;5599;52.210;21.046;2023-04-24T04:28:47;12.53;;;9.50;;
11090;SDS011;5599;52.210;21.046;2023-04-24T04:31:18;11.63;;;8.97;;
11090;SDS011;5599;52.210;21.046;2023-04-24T04:33:48;16.23;;;9.67;;
11090;SDS011;5599;52.210;21.046;2023-04-24T04:36:18;12.45;;;9.38;;
11090;SDS011;5599;52.210;21.046;2023-04-24T04:38:53;10.68;;;9.20;;
11090;SDS011;5599;52.210;21.046;2023-04-24T04:41:41;10.20;;;8.95;;
11090;SDS011;5599;52.210;21.046;2023-04-24T04:44:11;10.10;;;8.80;;
11090;SDS011;5599;52.210;21.046;2023-04-24T04:46:43;14.55;;;9.60;;
11090;SDS011;5599;52.210;21.046;2023-04-24T04:49:39;16.85;;;8.80;;
11090;SDS011;5599;52.210;21.046;2023-04-24T04:52:16;14.73;;;9.07;;
11090;SDS011;5599;52.210;21.046;2023-04-24T04:54:50;12.10;;;8.80;;
11090;SDS011;5599;52.210;21.046;2023-04-24T04:57:21;9.60;;;8.45;;
11090;SDS011;5599;52.210;21.046;2023-04-24T04:59:51;8.95;;;8.07;;
11090;SDS011;5599;52.210;21.046;2023-04-24T05:02:34;12.35;;;8.07;;
11090;SDS011;5599;52.210;21.046;2023-04-24T05:05:04;9.90;;;8.68;;
11090;SDS011;5599;52.210;21.046;2023-04-24T05:07:34;12.18;;;8.55;;
11090;SDS011;5599;52.210;21.046;2023-04-24T05:10:04;11.95;;;8.73;;
11090;SDS011;5599;52.210;21.046;2023-04-24T05:12:34;10.00;;;8.10;;
11090;SDS011;5599;52.210;21.046;2023-04-24T05:15:04;10.98;;;8.40;;
11090;SDS011;5599;52.210;21.046;2023-04-24T05:17:35;10.15;;;8.05;;
11090;SDS011;5599;52.210;21.046;2023-04-24T05:20:05;9.52;;;8.38;;
11090;SDS011;5599;52.210;21.046;2023-04-24T05:22:35;13.43;;;8.15;;
11090;SDS011;5599;52.210;21.046;2023-04-24T05:25:05;10.05;;;8.93;;
11090;SDS011;5599;52.210;21.046;2023-04-24T05:27:58;9.95;;;8.15;;
11090;SDS011;5599;52.210;21.046;2023-04-24T05:30:27;10.02;;;8.82;;
11090;SDS011;5599;52.210;21.046;2023-04-24T05:32:59;10.50;;;8.25;;
11090;SDS011;5599;52.210;21.046;2023-04-24T05:35:30;12.35;;;9.23;;
11090;SDS011;5599;52.210;21.046;2023-04-24T05:38:00;15.63;;;8.75;;
11090;SDS011;5599;52.210;21.046;2023-04-24T05:40:30;10.80;;;8.75;;
11090;SDS011;5599;52.210;21.046;2023-04-24T05:42:59;9.05;;;8.23;;
11090;SDS011;5599;52.210;21.046;2023-04-24T05:45:28;11.27;;;9.05;;
11090;SDS011;5599;52.210;21.046;2023-04-24T05:48:00;9.40;;;7.97;;
11090;SDS011;5599;52.210;21.046;2023-04-24T05:50:30;8.82;;;7.93;;
11090;SDS011;5599;52.210;21.046;2023-04-24T05:53:02;9.27;;;8.38;;
11090;SDS011;5599;52.210;21.046;2023-04-24T05:55:36;11.88;;;8.68;;
11090;SDS011;5599;52.210;21.046;2023-04-24T05:58:05;9.32;;;8.45;;
11090;SDS011;5599;52.210;21.046;2023-04-24T06:00:36;10.93;;;8.73;;
11090;SDS011;5599;52.210;21.046;2023-04-24T06:03:08;10.00;;;8.60;;
11090;SDS011;5599;52.210;21.046;2023-04-24T06:05:39;10.25;;;8.60;;
11090;SDS011;5599;52.210;21.046;2023-04-24T06:08:08;9.77;;;8.45;;
11090;SDS011;5599;52.210;21.046;2023-04-24T06:10:39;12.02;;;8.82;;
11090;SDS011;5599;52.210;21.046;2023-04-24T06:13:10;10.77;;;8.82;;
11090;SDS011;5599;52.210;21.046;2023-04-24T06:15:46;9.77;;;8.35;;
11090;SDS011;5599;52.210;21.046;2023-04-24T06:18:22;13.75;;;9.07;;
11090;SDS011;5599;52.210;21.046;2023-04-24T06:20:52;12.77;;;8.60;;
11090;SDS011;5599;52.210;21.046;2023-04-24T06:23:23;9.50;;;8.10;;
11090;SDS011;5599;52.210;21.046;2023-04-24T06:25:53;12.02;;;9.10;;
11090;SDS011;5599;52.210;21.046;2023-04-24T06:28:22;9.20;;;8.20;;
11090;SDS011;5599;52.210;21.046;2023-04-24T06:30:52;10.63;;;8.48;;
11090;SDS011;5599;52.210;21.046;2023-04-24T06:33:23;9.00;;;8.10;;
11090;SDS011;5599;52.210;21.046;2023-04-24T06:35:52;15.50;;;8.32;;
11090;SDS011;5599;52.210;21.046;2023-04-24T06:38:22;10.55;;;8.95;;
11090;SDS011;5599;52.210;21.046;2023-04-24T06:40:51;11.23;;;8.73;;
11090;SDS011;5599;52.210;21.046;2023-04-24T06:43:20;15.07;;;8.93;;
11090;SDS011;5599;52.210;21.046;2023-04-24T06:45:50;9.23;;;8.25;;
11090;SDS011;5599;52.210;21.046;2023-04-24T06:48:19;11.07;;;8.52;;
11090;SDS011;5599;52.210;21.046;2023-04-24T06:50:50;9.68;;;8.23;;
11090;SDS011;5599;52.210;21.046;2023-04-24T06:53:20;9.43;;;8.13;;
11090;SDS011;5599;52.210;21.046;2023-04-24T06:55:49;10.05;;;8.57;;
11090;SDS011;5599;52.210;21.046;2023-04-24T06:58:19;13.20;;;8.88;;
11090;SDS011;5599;52.210;21.046;2023-04-24T07:00:48;11.40;;;8.40;;
11090;SDS011;5599;52.210;21.046;2023-04-24T07:03:17;14.90;;;8.93;;
11090;SDS011;5599;52.210;21.046;2023-04-24T07:05:47;12.52;;;8.82;;
11090;SDS011;5599;52.210;21.046;2023-04-24T07:08:19;12.90;;;8.52;;
11090;SDS011;5599;52.210;21.046;2023-04-24T07:10:50;13.35;;;8.52;;
11090;SDS011;5599;52.210;21.046;2023-04-24T07:13:19;13.48;;;8.25;;
11090;SDS011;5599;52.210;21.046;2023-04-24T07:15:49;11.65;;;8.27;;
11090;SDS011;5599;52.210;21.046;2023-04-24T07:18:21;15.68;;;9.23;;
11090;SDS011;5599;52.210;21.046;2023-04-24T07:20:51;13.70;;;8.32;;
11090;SDS011;5599;52.210;21.046;2023-04-24T07:23:22;14.65;;;8.50;;
11090;SDS011;5599;52.210;21.046;2023-04-24T07:25:52;15.02;;;7.93;;
11090;SDS011;5599;52.210;21.046;2023-04-24T07:28:21;15.35;;;8.02;;
11090;SDS011;5599;52.210;21.046;2023-04-24T07:30:51;14.18;;;8.55;;
11090;SDS011;5599;52.210;21.046;2023-04-24T07:33:22;10.20;;;8.30;;
11090;SDS011;5599;52.210;21.046;2023-04-24T07:35:51;12.70;;;8.02;;
11090;SDS011;5599;52.210;21.046;2023-04-24T07:38:20;13.18;;;7.82;;
11090;SDS011;5599;52.210;21.046;2023-04-24T07:40:52;8.90;;;7.43;;
11090;SDS011;5599;52.210;21.046;2023-04-24T07:43:22;10.52;;;7.75;;
11090;SDS011;5599;52.210;21.046;2023-04-24T07:45:52;12.25;;;7.20;;
11090;SDS011;5599;52.210;21.046;2023-04-24T07:48:22;9.27;;;7.00;;
11090;SDS011;5599;52.210;21.046;2023-04-24T07:50:53;11.05;;;7.45;;
11090;SDS011;5599;52.210;21.046;2023-04-24T07:53:24;10.82;;;7.55;;
11090;SDS011;5599;52.210;21.046;2023-04-24T07:55:54;11.18;;;8.10;;
11090;SDS011;5599;52.210;21.046;2023-04-24T07:58:23;9.75;;;7.07;;
11090;SDS011;5599;52.210;21.046;2023-04-24T08:00:53;10.07;;;7.35;;
11090;SDS011;5599;52.210;21.046;2023-04-24T08:03:22;11.35;;;7.30;;
11090;SDS011;5599;52.210;21.046;2023-04-24T08:05:52;9.70;;;6.97;;
11090;SDS011;5599;52.210;21.046;2023-04-24T08:08:21;8.93;;;6.80;;
11090;SDS011;5599;52.210;21.046;2023-04-24T08:10:53;8.88;;;7.38;;
11090;SDS011;5599;52.210;21.046;2023-04-24T08:13:22;8.98;;;7.63;;
11090;SDS011;5599;52.210;21.046;2023-04-24T08:15:51;11.20;;;7.43;;
11090;SDS011;5599;52.210;21.046;2023-04-24T08:18:21;8.02;;;7.18;;
11090;SDS011;5599;52.210;21.046;2023-04-24T08:20:51;10.07;;;6.95;;
11090;SDS011;5599;52.210;21.046;2023-04-24T08:23:20;7.90;;;6.53;;
11090;SDS011;5599;52.210;21.046;2023-04-24T08:25:52;9.77;;;7.70;;
11090;SDS011;5599;52.210;21.046;2023-04-24T08:28:21;10.85;;;6.97;;
11090;SDS011;5599;52.210;21.046;2023-04-24T08:30:50;10.82;;;7.28;;
11090;SDS011;5599;52.210;21.046;2023-04-24T08:33:22;8.80;;;6.18;;
11090;SDS011;5599;52.210;21.046;2023-04-24T08:35:52;8.40;;;6.45;;
11090;SDS011;5599;52.210;21.046;2023-04-24T08:38:22;10.10;;;7.03;;
11090;SDS011;5599;52.210;21.046;2023-04-24T08:40:53;9.82;;;6.97;;
11090;SDS011;5599;52.210;21.046;2023-04-24T08:43:23;12.05;;;7.28;;
11090;SDS011;5599;52.210;21.046;2023-04-24T08:45:53;10.13;;;7.32;;
11090;SDS011;5599;52.210;21.046;2023-04-24T08:48:26;10.68;;;6.78;;
11090;SDS011;5599;52.210;21.046;2023-04-24T08:50:58;7.63;;;6.72;;
11090;SDS011;5599;52.210;21.046;2023-04-24T08:53:28;8.40;;;6.93;;
11090;SDS011;5599;52.210;21.046;2023-04-24T08:55:59;8.27;;;7.03;;
11090;SDS011;5599;52.210;21.046;2023-04-24T08:58:31;9.90;;;7.60;;
11090;SDS011;5599;52.210;21.046;2023-04-24T09:01:01;11.77;;;7.72;;
11090;SDS011;5599;52.210;21.046;2023-04-24T09:03:31;8.10;;;6.65;;
11090;SDS011;5599;52.210;21.046;2023-04-24T09:06:02;8.27;;;7.22;;
11090;SDS011;5599;52.210;21.046;2023-04-24T09:08:32;12.90;;;7.50;;
11090;SDS011;5599;52.210;21.046;2023-04-24T09:11:03;14.20;;;7.70;;
11090;SDS011;5599;52.210;21.046;2023-04-24T09:13:32;8.05;;;7.20;;
11090;SDS011;5599;52.210;21.046;2023-04-24T09:16:02;11.18;;;7.05;;
11090;SDS011;5599;52.210;21.046;2023-04-24T09:18:32;9.63;;;6.97;;
11090;SDS011;5599;52.210;21.046;2023-04-24T09:21:02;10.60;;;7.75;;
11090;SDS011;5599;52.210;21.046;2023-04-24T09:23:35;8.65;;;7.10;;
11090;SDS011;5599;52.210;21.046;2023-04-24T09:26:06;8.90;;;6.68;;
11090;SDS011;5599;52.210;21.046;2023-04-24T09:28:37;8.02;;;7.22;;
11090;SDS011;5599;52.210;21.046;2023-04-24T09:31:08;7.82;;;6.82;;
11090;SDS011;5599;52.210;21.046;2023-04-24T09:33:40;6.57;;;5.97;;
11090;SDS011;5599;52.210;21.046;2023-04-24T09:36:26;7.93;;;6.32;;
11090;SDS011;5599;52.210;21.046;2023-04-24T09:38:57;6.40;;;5.40;;
11090;SDS011;5599;52.210;21.046;2023-04-24T09:41:29;9.43;;;5.40;;
11090;SDS011;5599;52.210;21.046;2023-04-24T09:44:09;8.82;;;5.78;;
11090;SDS011;5599;52.210;21.046;2023-04-24T09:46:41;10.98;;;5.95;;
11090;SDS011;5599;52.210;21.046;2023-04-24T09:49:12;6.35;;;5.65;;
11090;SDS011;5599;52.210;21.046;2023-04-24T09:51:43;9.38;;;6.47;;
11090;SDS011;5599;52.210;21.046;2023-04-24T09:54:13;10.98;;;5.88;;
11090;SDS011;5599;52.210;21.046;2023-04-24T09:56:46;7.97;;;5.28;;
11090;SDS011;5599;52.210;21.046;2023-04-24T09:59:17;7.35;;;6.63;;
11090;SDS011;5599;52.210;21.046;2023-04-24T10:01:47;8.43;;;5.55;;
11090;SDS011;5599;52.210;21.046;2023-04-24T10:04:18;5.75;;;5.25;;
11090;SDS011;5599;52.210;21.046;2023-04-24T10:06:48;5.68;;;5.18;;
11090;SDS011;5599;52.210;21.046;2023-04-24T10:09:19;8.18;;;6.30;;
11090;SDS011;5599;52.210;21.046;2023-04-24T10:11:51;8.02;;;6.18;;
11090;SDS011;5599;52.210;21.046;2023-04-24T10:14:22;7.38;;;6.65;;
11090;SDS011;5599;52.210;21.046;2023-04-24T10:16:53;8.00;;;6.50;;
11090;SDS011;5599;52.210;21.046;2023-04-24T10:19:25;10.63;;;6.75;;
11090;SDS011;5599;52.210;21.046;2023-04-24T10:21:54;7.70;;;7.00;;
11090;SDS011;5599;52.210;21.046;2023-04-24T10:24:25;9.43;;;7.22;;
11090;SDS011;5599;52.210;21.046;2023-04-24T10:26:56;7.72;;;6.93;;
11090;SDS011;5599;52.210;21.046;2023-04-24T10:29:26;7.43;;;6.53;;
11090;SDS011;5599;52.210;21.046;2023-04-24T10:31:58;9.45;;;6.55;;
11090;SDS011;5599;52.210;21.046;2023-04-24T10:34:28;12.05;;;7.18;;
11090;SDS011;5599;52.210;21.046;2023-04-24T10:36:57;7.75;;;6.40;;
11090;SDS011;5599;52.210;21.046;2023-04-24T10:39:27;6.60;;;5.90;;
11090;SDS011;5599;52.210;21.046;2023-04-24T10:41:59;6.68;;;6.05;;
11090;SDS011;5599;52.210;21.046;2023-04-24T10:44:35;6.50;;;5.90;;
11090;SDS011;5599;52.210;21.046;2023-04-24T10:47:05;6.90;;;6.20;;
11090;SDS011;5599;52.210;21.046;2023-04-24T10:49:40;5.93;;;5.32;;
11090;SDS011;5599;52.210;21.046;2023-04-24T10:52:10;5.45;;;4.90;;
11090;SDS011;5599;52.210;21.046;2023-04-24T10:54:44;5.75;;;4.95;;
11090;SDS011;5599;52.210;21.046;2023-04-24T10:57:28;7.20;;;6.47;;
11090;SDS011;5599;52.210;21.046;2023-04-24T11:00:10;5.63;;;4.95;;
11090;SDS011;5599;52.210;21.046;2023-04-24T11:02:42;9.95;;;5.88;;
11090;SDS011;5599;52.210;21.046;2023-04-24T11:05:18;6.90;;;5.38;;
11090;SDS011;5599;52.210;21.046;2023-04-24T11:10:40;6.03;;;5.38;;
11090;SDS011;5599;52.210;21.046;2023-04-24T11:13:15;6.07;;;5.57;;
11090;SDS011;5599;52.210;21.046;2023-04-24T11:15:45;6.90;;;4.90;;
11090;SDS011;5599;52.210;21.046;2023-04-24T11:18:41;6.82;;;5.20;;
11090;SDS011;5599;52.210;21.046;2023-04-24T11:21:17;8.65;;;5.68;;
11090;SDS011;5599;52.210;21.046;2023-04-24T11:23:47;6.00;;;5.32;;
11090;SDS011;5599;52.210;21.046;2023-04-24T11:26:18;8.60;;;4.70;;
11090;SDS011;5599;52.210;21.046;2023-04-24T11:28:52;5.57;;;5.07;;
11090;SDS011;5599;52.210;21.046;2023-04-24T11:31:34;7.25;;;5.18;;
11090;SDS011;5599;52.210;21.046;2023-04-24T11:34:08;5.78;;;4.95;;
11090;SDS011;5599;52.210;21.046;2023-04-24T11:36:39;7.53;;;5.22;;
11090;SDS011;5599;52.210;21.046;2023-04-24T11:39:08;5.55;;;4.97;;
11090;SDS011;5599;52.210;21.046;2023-04-24T11:41:38;6.68;;;4.65;;
11090;SDS011;5599;52.210;21.046;2023-04-24T11:44:09;12.75;;;4.82;;
11090;SDS011;5599;52.210;21.046;2023-04-24T11:46:39;6.30;;;5.28;;
11090;SDS011;5599;52.210;21.046;2023-04-24T11:49:08;5.95;;;5.35;;
11090;SDS011;5599;52.210;21.046;2023-04-24T11:51:38;7.97;;;5.22;;
11090;SDS011;5599;52.210;21.046;2023-04-24T11:54:19;5.85;;;4.68;;
11090;SDS011;5599;52.210;21.046;2023-04-24T11:56:49;6.25;;;4.95;;
11090;SDS011;5599;52.210;21.046;2023-04-24T11:59:20;6.22;;;5.43;;
11090;SDS011;5599;52.210;21.046;2023-04-24T12:01:49;6.30;;;4.47;;
11090;SDS011;5599;52.210;21.046;2023-04-24T12:04:19;6.05;;;5.45;;
11090;SDS011;5599;52.210;21.046;2023-04-24T12:07:01;6.22;;;4.88;;
11090;SDS011;5599;52.210;21.046;2023-04-24T12:09:41;6.47;;;4.80;;
11090;SDS011;5599;52.210;21.046;2023-04-24T12:12:14;6.78;;;4.93;;
11090;SDS011;5599;52.210;21.046;2023-04-24T12:14:46;5.50;;;5.00;;
11090;SDS011;5599;52.210;21.046;2023-04-24T12:17:16;7.22;;;5.35;;
11090;SDS011;5599;52.210;21.046;2023-04-24T12:19:46;7.05;;;4.93;;
11090;SDS011;5599;52.210;21.046;2023-04-24T12:22:17;8.82;;;5.30;;
11090;SDS011;5599;52.210;21.046;2023-04-24T12:24:56;5.88;;;5.20;;
11090;SDS011;5599;52.210;21.046;2023-04-24T12:27:30;5.70;;;5.15;;
11090;SDS011;5599;52.210;21.046;2023-04-24T12:30:03;5.88;;;4.95;;
11090;SDS011;5599;52.210;21.046;2023-04-24T12:32:34;6.72;;;5.22;;
11090;SDS011;5599;52.210;21.046;2023-04-24T12:35:03;6.15;;;5.20;;
11090;SDS011;5599;52.210;21.046;2023-04-24T12:37:34;9.88;;;5.45;;
11090;SDS011;5599;52.210;21.046;2023-04-24T12:40:04;9.55;;;5.85;;
11090;SDS011;5599;52.210;21.046;2023-04-24T12:42:35;7.05;;;5.97;;
11090;SDS011;5599;52.210;21.046;2023-04-24T12:45:12;7.72;;;5.32;;
11090;SDS011;5599;52.210;21.046;2023-04-24T12:47:42;23.60;;;7.07;;
11090;SDS011;5599;52.210;21.046;2023-04-24T12:50:14;20.20;;;6.00;;
11090;SDS011;5599;52.210;21.046;2023-04-24T12:52:44;16.73;;;4.82;;
11090;SDS011;5599;52.210;21.046;2023-04-24T12:55:13;17.40;;;4.63;;
11090;SDS011;5599;52.210;21.046;2023-04-24T12:57:42;16.17;;;4.55;;
11090;SDS011;5599;52.210;21.046;2023-04-24T13:00:14;11.15;;;4.10;;
11090;SDS011;5599;52.210;21.046;2023-04-24T13:02:46;11.10;;;4.43;;
11090;SDS011;5599;52.210;21.046;2023-04-24T13:05:16;8.73;;;3.95;;
11090;SDS011;5599;52.210;21.046;2023-04-24T13:07:45;10.95;;;3.60;;
11090;SDS011;5599;52.210;21.046;2023-04-24T13:10:14;9.20;;;4.07;;
11090;SDS011;5599;52.210;21.046;2023-04-24T13:12:44;9.32;;;3.67;;
11090;SDS011;5599;52.210;21.046;2023-04-24T13:15:15;12.98;;;4.13;;
11090;SDS011;5599;52.210;21.046;2023-04-24T13:17:44;5.93;;;3.33;;
11090;SDS011;5599;52.210;21.046;2023-04-24T13:20:13;10.57;;;3.90;;
11090;SDS011;5599;52.210;21.046;2023-04-24T13:22:43;12.73;;;3.65;;
11090;SDS011;5599;52.210;21.046;2023-04-24T13:25:12;6.03;;;3.67;;
11090;SDS011;5599;52.210;21.046;2023-04-24T13:27:44;6.60;;;3.72;;
11090;SDS011;5599;52.210;21.046;2023-04-24T13:30:14;12.25;;;4.28;;
11090;SDS011;5599;52.210;21.046;2023-04-24T13:32:44;8.38;;;4.95;;
11090;SDS011;5599;52.210;21.046;2023-04-24T13:35:13;7.03;;;4.78;;
11090;SDS011;5599;52.210;21.046;2023-04-24T13:37:47;6.45;;;4.40;;
11090;SDS011;5599;52.210;21.046;2023-04-24T13:40:17;5.07;;;3.83;;
11090;SDS011;5599;52.210;21.046;2023-04-24T13:42:46;6.05;;;3.80;;
11090;SDS011;5599;52.210;21.046;2023-04-24T13:45:17;7.63;;;4.00;;
11090;SDS011;5599;52.210;21.046;2023-04-24T13:47:51;5.68;;;3.55;;
11090;SDS011;5599;52.210;21.046;2023-04-24T13:50:22;7.20;;;3.60;;
11090;SDS011;5599;52.210;21.046;2023-04-24T13:52:51;6.07;;;3.65;;
11090;SDS011;5599;52.210;21.046;2023-04-24T13:55:21;4.00;;;3.50;;
11090;SDS011;5599;52.210;21.046;2023-04-24T13:57:51;7.20;;;3.45;;
11090;SDS011;5599;52.210;21.046;2023-04-24T14:00:23;4.25;;;3.30;;
11090;SDS011;5599;52.210;21.046;2023-04-24T14:02:53;6.78;;;3.25;;
11090;SDS011;5599;52.210;21.046;2023-04-24T14:05:23;5.88;;;3.50;;
11090;SDS011;5599;52.210;21.046;2023-04-24T14:07:53;3.88;;;3.15;;
11090;SDS011;5599;52.210;21.046;2023-04-24T14:10:23;3.78;;;3.28;;
11090;SDS011;5599;52.210;21.046;2023-04-24T14:12:53;3.20;;;2.90;;
11090;SDS011;5599;52.210;21.046;2023-04-24T14:15:24;3.92;;;3.50;;
11090;SDS011;5599;52.210;21.046;2023-04-24T14:17:53;3.78;;;3.30;;
11090;SDS011;5599;52.210;21.046;2023-04-24T14:20:22;4.93;;;3.30;;
11090;SDS011;5599;52.210;21.046;2023-04-24T14:22:52;4.35;;;3.28;;
11090;SDS011;5599;52.210;21.046;2023-04-24T14:25:22;3.42;;;3.13;;
11090;SDS011;5599;52.210;21.046;2023-04-24T14:27:51;6.47;;;3.30;;
11090;SDS011;5599;52.210;21.046;2023-04-24T14:30:21;4.80;;;3.40;;
11090;SDS011;5599;52.210;21.046;2023-04-24T14:32:52;4.60;;;3.30;;
11090;SDS011;5599;52.210;21.046;2023-04-24T14:35:22;3.80;;;3.20;;
11090;SDS011;5599;52.210;21.046;2023-04-24T14:37:56;4.25;;;3.28;;
11090;SDS011;5599;52.210;21.046;2023-04-24T14:40:25;4.13;;;3.33;;
11090;SDS011;5599;52.210;21.046;2023-04-24T14:43:14;5.90;;;3.38;;
11090;SDS011;5599;52.210;21.046;2023-04-24T14:45:44;4.55;;;3.85;;
11090;SDS011;5599;52.210;21.046;2023-04-24T14:48:15;4.40;;;3.22;;
11090;SDS011;5599;52.210;21.046;2023-04-24T14:50:44;7.07;;;2.90;;
11090;SDS011;5599;52.210;21.046;2023-04-24T14:53:14;5.70;;;3.85;;
11090;SDS011;5599;52.210;21.046;2023-04-24T14:55:44;3.92;;;3.50;;
11090;SDS011;5599;52.210;21.046;2023-04-24T14:58:13;6.35;;;3.88;;
11090;SDS011;5599;52.210;21.046;2023-04-24T15:00:43;4.85;;;4.05;;
11090;SDS011;5599;52.210;21.046;2023-04-24T15:03:12;4.57;;;3.83;;
11090;SDS011;5599;52.210;21.046;2023-04-24T15:05:43;4.32;;;3.92;;
11090;SDS011;5599;52.210;21.046;2023-04-24T15:08:13;4.68;;;4.22;;